createdAt,value
2019-02-23T00:00:48.027Z,102734.70
2019-02-23T00:01:49.241Z,102737.48
2019-02-23T00:02:50.475Z,102731.36
2019-02-23T00:03:51.593Z,102738.16
2019-02-23T00:04:52.715Z,102743.16
2019-02-23T00:05:53.839Z,102738.76
2019-02-23T00:06:54.954Z,102731.80
2019-02-23T00:07:56.108Z,102719.36
2019-02-23T00:08:57.232Z,102712.27
2019-02-23T00:09:58.352Z,102706.03
2019-02-23T00:10:59.469Z,102691.88
2019-02-23T00:12:00.588Z,102700.80
2019-02-23T00:13:01.930Z,102712.96
2019-02-23T00:14:03.112Z,102709.91
2019-02-23T00:15:06.025Z,102706.01
2019-02-23T00:16:07.238Z,102715.49
2019-02-23T00:17:08.359Z,102724.51
2019-02-23T00:18:09.519Z,102733.89
2019-02-23T00:19:10.623Z,102737.17
2019-02-23T00:20:11.832Z,102737.17
2019-02-23T00:21:12.952Z,102744.84
2019-02-23T00:22:14.066Z,102742.63
2019-02-23T00:23:15.226Z,102741.41
2019-02-23T00:24:16.340Z,102744.47
2019-02-23T00:25:17.457Z,102744.10
2019-02-23T00:26:18.679Z,102744.19
2019-02-23T00:27:19.793Z,102746.41
2019-02-23T00:28:20.928Z,102746.41
2019-02-23T00:29:22.149Z,102737.98
2019-02-23T00:30:23.268Z,102745.16
2019-02-23T00:31:24.404Z,102746.50
2019-02-23T00:32:25.512Z,102749.18
2019-02-23T00:33:26.656Z,102747.38
2019-02-23T00:34:27.819Z,102742.98
2019-02-23T00:35:28.892Z,102737.48
2019-02-23T00:36:30.120Z,102736.64
2019-02-23T00:37:31.238Z,102740.29
2019-02-23T00:38:32.474Z,102747.38
2019-02-23T00:39:33.710Z,102742.48
2019-02-23T00:40:34.928Z,102745.66
2019-02-23T00:41:36.047Z,102745.66
2019-02-23T00:42:37.162Z,102742.98
2019-02-23T00:43:38.282Z,102755.05
2019-02-23T00:44:39.409Z,102752.36
2019-02-23T00:45:40.554Z,102753.70
2019-02-23T00:46:41.676Z,102745.66
2019-02-23T00:47:43.325Z,102739.92
2019-02-23T00:48:44.450Z,102727.84
2019-02-23T00:49:45.600Z,102722.95
2019-02-23T00:50:46.726Z,102721.61
2019-02-23T00:51:47.964Z,102716.74
2019-02-23T00:52:49.084Z,102723.45
2019-02-23T00:53:50.204Z,102725.76
2019-02-23T00:54:51.357Z,102725.76
2019-02-23T00:55:52.580Z,102727.19
2019-02-23T00:56:53.698Z,102728.53
2019-02-23T00:57:54.823Z,102722.33
2019-02-23T00:58:56.045Z,102719.27
2019-02-23T00:59:57.290Z,102719.36
2019-02-23T01:00:58.509Z,102725.69
2019-02-23T01:01:59.645Z,102724.94
2019-02-23T01:03:00.873Z,102729.84
2019-02-23T01:04:02.128Z,102721.89
2019-02-23T01:05:03.852Z,102725.06
2019-02-23T01:06:04.968Z,102722.56
2019-02-23T01:07:06.084Z,102712.78
2019-02-23T01:08:07.308Z,102712.78
2019-02-23T01:09:08.531Z,102713.28
2019-02-23T01:10:09.780Z,102703.98
2019-02-23T01:11:11.017Z,102706.41
2019-02-23T01:12:12.136Z,102706.41
2019-02-23T01:13:13.260Z,102706.04
2019-02-23T01:14:14.373Z,102706.13
2019-02-23T01:15:15.550Z,102705.29
2019-02-23T01:16:16.656Z,102703.95
2019-02-23T01:17:17.868Z,102701.36
2019-02-23T01:18:19.109Z,102704.04
2019-02-23T01:19:20.822Z,102708.06
2019-02-23T01:20:22.079Z,102697.34
2019-02-23T01:21:23.195Z,102695.63
2019-02-23T01:22:24.309Z,102700.98
2019-02-23T01:23:25.427Z,102696.96
2019-02-23T01:24:26.542Z,102697.09
2019-02-23T01:25:27.861Z,102701.58
2019-02-23T01:26:28.978Z,102711.45
2019-02-23T01:27:30.088Z,102717.66
2019-02-23T01:28:31.202Z,102714.61
2019-02-23T01:29:32.324Z,102718.16
2019-02-23T01:30:33.475Z,102718.63
2019-02-23T01:31:34.696Z,102717.78
2019-02-23T01:32:35.917Z,102716.33
2019-02-23T01:33:37.071Z,102717.29
2019-02-23T01:34:38.188Z,102718.63
2019-02-23T01:35:39.422Z,102718.63
2019-02-23T01:36:40.537Z,102716.45
2019-02-23T01:37:41.652Z,102721.81
2019-02-23T01:38:42.766Z,102720.47
2019-02-23T01:39:44.085Z,102715.95
2019-02-23T01:40:45.586Z,102718.16
2019-02-23T01:41:46.699Z,102711.92
2019-02-23T01:42:47.817Z,102711.92
2019-02-23T01:43:48.935Z,102706.09
2019-02-23T01:44:50.162Z,102708.88
2019-02-23T01:45:51.296Z,102703.13
2019-02-23T01:46:52.514Z,102704.01
2019-02-23T01:47:53.621Z,102701.79
2019-02-23T01:48:54.748Z,102695.46
2019-02-23T01:49:58.792Z,102704.84
2019-02-23T01:50:59.176Z,102708.41
2019-02-23T01:52:00.401Z,102717.87
2019-02-23T01:53:01.612Z,102715.20
2019-02-23T01:54:02.835Z,102713.02
2019-02-23T01:55:05.347Z,102709.00
2019-02-23T01:56:06.770Z,102711.67
2019-02-23T01:57:07.888Z,102709.83
2019-02-23T01:58:09.105Z,102717.04
2019-02-23T01:59:10.222Z,102713.86
2019-02-23T02:00:12.537Z,102711.30
2019-02-23T02:01:13.664Z,102717.04
2019-02-23T02:02:14.786Z,102714.36
2019-02-23T02:03:16.103Z,102712.89
2019-02-23T02:04:17.328Z,102711.17
2019-02-23T02:05:18.449Z,102707.16
2019-02-23T02:06:19.680Z,102703.13
2019-02-23T02:07:20.794Z,102703.63
2019-02-23T02:08:21.914Z,102711.17
2019-02-23T02:09:23.329Z,102706.31
2019-02-23T02:10:24.646Z,102712.52
2019-02-23T02:11:25.833Z,102714.23
2019-02-23T02:12:26.954Z,102707.53
2019-02-23T02:13:28.179Z,102703.51
2019-02-23T02:14:29.292Z,102707.16
2019-02-23T02:15:30.604Z,102704.84
2019-02-23T02:16:31.881Z,102702.66
2019-02-23T02:17:32.954Z,102705.81
2019-02-23T02:18:34.071Z,102696.43
2019-02-23T02:19:35.183Z,102697.30
2019-02-23T02:20:36.303Z,102700.45
2019-02-23T02:21:37.432Z,102696.05
2019-02-23T02:22:38.549Z,102688.39
2019-02-23T02:23:39.670Z,102682.65
2019-02-23T02:24:40.784Z,102692.91
2019-02-23T02:25:41.897Z,102689.35
2019-02-23T02:26:43.152Z,102694.34
2019-02-23T02:27:44.391Z,102696.18
2019-02-23T02:28:45.524Z,102697.52
2019-02-23T02:29:46.655Z,102708.83
2019-02-23T02:30:47.763Z,102704.81
2019-02-23T02:31:48.891Z,102703.56
2019-02-23T02:32:50.009Z,102702.22
2019-02-23T02:34:04.012Z,102700.50
2019-02-23T02:35:07.229Z,102705.12
2019-02-23T02:36:08.364Z,102703.28
2019-02-23T02:37:09.644Z,102709.14
2019-02-23T02:38:10.760Z,102711.44
2019-02-23T02:39:12.682Z,102707.05
2019-02-23T02:40:13.783Z,102703.49
2019-02-23T02:41:14.898Z,102704.37
2019-02-23T02:42:16.028Z,102701.31
2019-02-23T02:43:17.144Z,102696.33
2019-02-23T02:44:18.263Z,102693.64
2019-02-23T02:45:19.480Z,102689.62
2019-02-23T02:46:20.728Z,102682.55
2019-02-23T02:47:21.965Z,102677.56
2019-02-23T02:48:23.081Z,102673.54
2019-02-23T02:49:24.193Z,102662.81
2019-02-23T02:50:25.304Z,102656.95
2019-02-23T02:51:26.421Z,102658.80
2019-02-23T02:52:27.561Z,102659.64
2019-02-23T02:53:28.676Z,102665.38
2019-02-23T02:54:29.790Z,102676.59
2019-02-23T02:55:31.013Z,102686.44
2019-02-23T02:56:32.147Z,102694.02
2019-02-23T02:57:33.264Z,102703.28
2019-02-23T02:58:34.380Z,102701.09
2019-02-23T02:59:35.595Z,102703.78
2019-02-23T03:00:36.711Z,102706.45
2019-02-23T03:01:37.828Z,102713.03
2019-02-23T03:02:38.960Z,102729.99
2019-02-23T03:03:40.075Z,102726.81
2019-02-23T03:04:41.191Z,102734.48
2019-02-23T03:05:42.316Z,102740.72
2019-02-23T03:06:43.430Z,102737.08
2019-02-23T03:07:44.565Z,102737.53
2019-02-23T03:08:45.685Z,102735.73
2019-02-23T03:09:46.801Z,102737.08
2019-02-23T03:10:47.922Z,102731.34
2019-02-23T03:11:49.038Z,102733.52
2019-02-23T03:12:50.561Z,102731.71
2019-02-23T03:13:51.776Z,102732.17
2019-02-23T03:14:53.073Z,102735.64
2019-02-23T03:15:54.199Z,102728.06
2019-02-23T03:16:55.418Z,102723.58
2019-02-23T03:17:56.575Z,102720.02
2019-02-23T03:18:57.688Z,102720.02
2019-02-23T03:19:59.106Z,102716.88
2019-02-23T03:21:00.225Z,102709.77
2019-02-23T03:22:01.364Z,102713.79
2019-02-23T03:23:05.533Z,102709.30
2019-02-23T03:24:06.644Z,102706.62
2019-02-23T03:25:07.753Z,102706.53
2019-02-23T03:26:08.865Z,102699.92
2019-02-23T03:27:09.981Z,102704.31
2019-02-23T03:28:11.112Z,102708.33
2019-02-23T03:29:12.333Z,102716.00
2019-02-23T03:30:13.459Z,102707.95
2019-02-23T03:31:14.690Z,102710.27
2019-02-23T03:32:15.807Z,102710.73
2019-02-23T03:33:16.963Z,102707.20
2019-02-23T03:34:18.066Z,102704.16
2019-02-23T03:35:19.181Z,102706.45
2019-02-23T03:36:20.292Z,102707.42
2019-02-23T03:37:21.403Z,102710.19
2019-02-23T03:38:22.540Z,102713.00
2019-02-23T03:39:23.657Z,102713.96
2019-02-23T03:40:24.938Z,102714.92
2019-02-23T03:41:26.085Z,102713.21
2019-02-23T03:42:27.209Z,102720.50
2019-02-23T03:43:28.364Z,102716.48
2019-02-23T03:44:29.500Z,102716.48
2019-02-23T03:45:30.598Z,102713.89
2019-02-23T03:46:31.741Z,102710.45
2019-02-23T03:47:32.856Z,102704.72
2019-02-23T03:48:34.012Z,102706.65
2019-02-23T03:49:35.132Z,102709.83
2019-02-23T03:50:48.369Z,102716.53
2019-02-23T03:51:39.381Z,102718.42
2019-02-23T03:52:40.507Z,102720.27
2019-02-23T03:53:41.807Z,102717.67
2019-02-23T03:54:42.915Z,102719.88
2019-02-23T03:55:44.030Z,102725.70
2019-02-23T03:56:45.254Z,102720.35
2019-02-23T03:57:46.365Z,102717.80
2019-02-23T03:58:47.512Z,102709.75
2019-02-23T03:59:48.630Z,102717.30
2019-02-23T04:00:49.751Z,102721.44
2019-02-23T04:01:50.874Z,102723.62
2019-02-23T04:02:52.093Z,102720.94
2019-02-23T04:03:53.245Z,102715.58
2019-02-23T04:04:54.664Z,102706.20
2019-02-23T04:05:55.786Z,102711.56
2019-02-23T04:06:56.897Z,102708.03
2019-02-23T04:07:58.019Z,102709.75
2019-02-23T04:08:59.149Z,102702.67
2019-02-23T04:10:00.430Z,102707.45
2019-02-23T04:11:01.792Z,102710.59
2019-02-23T04:12:02.895Z,102710.51
2019-02-23T04:13:04.013Z,102710.97
2019-02-23T04:14:05.164Z,102711.84
2019-02-23T04:15:06.483Z,102711.34
2019-02-23T04:16:07.702Z,102705.52
2019-02-23T04:17:08.814Z,102707.70
2019-02-23T04:18:09.939Z,102702.84
2019-02-23T04:19:11.062Z,102701.88
2019-02-23T04:20:12.281Z,102699.66
2019-02-23T04:21:13.397Z,102704.94
2019-02-23T04:22:14.520Z,102708.11
2019-02-23T04:23:15.638Z,102703.12
2019-02-23T04:24:16.783Z,102697.77
2019-02-23T04:25:17.895Z,102702.16
2019-02-23T04:26:19.008Z,102704.84
2019-02-23T04:27:20.128Z,102701.29
2019-02-23T04:28:21.353Z,102700.70
2019-02-23T04:29:22.479Z,102698.02
2019-02-23T04:30:23.590Z,102706.56
2019-02-23T04:31:24.810Z,102704.25
2019-02-23T04:32:25.931Z,102702.91
2019-02-23T04:33:27.147Z,102714.39
2019-02-23T04:34:28.408Z,102708.66
2019-02-23T04:35:29.622Z,102708.53
2019-02-23T04:36:30.738Z,102700.02
2019-02-23T04:37:31.853Z,102684.41
2019-02-23T04:38:33.075Z,102703.66
2019-02-23T04:39:34.223Z,102709.41
2019-02-23T04:40:35.333Z,102700.39
2019-02-23T04:41:36.673Z,102707.56
2019-02-23T04:42:37.841Z,102718.20
2019-02-23T04:43:38.994Z,102720.50
2019-02-23T04:44:40.228Z,102724.90
2019-02-23T04:45:41.447Z,102723.93
2019-02-23T04:46:42.677Z,102725.73
2019-02-23T04:47:43.936Z,102717.23
2019-02-23T04:48:45.055Z,102720.28
2019-02-23T04:49:51.900Z,102711.28
2019-02-23T04:50:53.021Z,102716.64
2019-02-23T04:51:54.141Z,102700.56
2019-02-23T04:52:55.262Z,102713.96
2019-02-23T04:53:56.375Z,102705.42
2019-02-23T04:54:57.665Z,102696.54
2019-02-23T04:56:01.132Z,102696.91
2019-02-23T04:57:02.240Z,102696.91
2019-02-23T04:58:03.352Z,102694.70
2019-02-23T04:59:04.567Z,102704.83
2019-02-23T05:00:09.317Z,102700.94
2019-02-23T05:01:10.573Z,102708.48
2019-02-23T05:02:11.716Z,102707.64
2019-02-23T05:03:12.840Z,102707.64
2019-02-23T05:04:13.982Z,102710.69
2019-02-23T05:05:15.089Z,102715.68
2019-02-23T05:06:16.306Z,102717.48
2019-02-23T05:07:17.416Z,102727.37
2019-02-23T05:08:18.533Z,102730.89
2019-02-23T05:09:19.653Z,102729.17
2019-02-23T05:10:20.781Z,102722.97
2019-02-23T05:11:21.892Z,102719.41
2019-02-23T05:12:23.009Z,102718.58
2019-02-23T05:13:24.139Z,102716.36
2019-02-23T05:14:25.254Z,102729.30
2019-02-23T05:15:26.480Z,102726.23
2019-02-23T05:16:27.605Z,102729.30
2019-02-23T05:17:28.717Z,102718.66
2019-02-23T05:18:29.870Z,102717.82
2019-02-23T05:19:30.983Z,102718.28
2019-02-23T05:20:32.272Z,102715.61
2019-02-23T05:21:33.380Z,102718.41
2019-02-23T05:22:34.502Z,102710.37
2019-02-23T05:23:35.610Z,102711.42
2019-02-23T05:24:36.730Z,102704.34
2019-02-23T05:25:37.902Z,102704.84
2019-02-23T05:26:39.274Z,102701.29
2019-02-23T05:27:40.408Z,102703.22
2019-02-23T05:28:41.973Z,102701.41
2019-02-23T05:29:43.099Z,102690.78
2019-02-23T05:30:44.224Z,102686.77
2019-02-23T05:31:45.437Z,102692.59
2019-02-23T05:32:46.553Z,102687.73
2019-02-23T05:33:47.686Z,102693.09
2019-02-23T05:34:48.810Z,102690.87
2019-02-23T05:35:49.941Z,102692.70
2019-02-23T05:36:51.076Z,102690.50
2019-02-23T05:37:52.172Z,102701.22
2019-02-23T05:38:53.291Z,102701.59
2019-02-23T05:39:54.509Z,102702.93
2019-02-23T05:40:55.644Z,102703.42
2019-02-23T05:41:56.753Z,102702.93
2019-02-23T05:43:01.154Z,102704.27
2019-02-23T05:44:00.890Z,102711.84
2019-02-23T05:45:02.320Z,102714.98
2019-02-23T05:46:03.491Z,102713.19
2019-02-23T05:47:04.745Z,102718.42
2019-02-23T05:48:05.887Z,102715.74
2019-02-23T05:49:06.997Z,102715.74
2019-02-23T05:50:08.511Z,102712.22
2019-02-23T05:51:09.667Z,102716.62
2019-02-23T05:52:10.784Z,102713.06
2019-02-23T05:53:11.910Z,102709.05
2019-02-23T05:54:13.024Z,102713.47
2019-02-23T05:55:14.145Z,102718.83
2019-02-23T05:56:16.302Z,102713.47
2019-02-23T05:57:17.720Z,102711.26
2019-02-23T05:58:18.965Z,102709.83
2019-02-23T05:59:20.046Z,102715.19
2019-02-23T06:00:21.173Z,102721.02
2019-02-23T06:01:22.331Z,102718.71
2019-02-23T06:02:23.459Z,102726.28
2019-02-23T06:03:24.587Z,102730.30
2019-02-23T06:04:25.709Z,102731.64
2019-02-23T06:05:26.968Z,102734.80
2019-02-23T06:06:28.161Z,102729.93
2019-02-23T06:07:29.280Z,102739.19
2019-02-23T06:08:30.403Z,102738.22
2019-02-23T06:09:31.519Z,102745.42
2019-02-23T06:10:32.744Z,102741.78
2019-02-23T06:11:33.892Z,102742.74
2019-02-23T06:12:35.116Z,102739.69
2019-02-23T06:13:36.234Z,102749.81
2019-02-23T06:14:37.389Z,102756.89
2019-02-23T06:15:38.712Z,102752.88
2019-02-23T06:16:39.845Z,102756.02
2019-02-23T06:17:41.066Z,102758.23
2019-02-23T06:18:42.179Z,102760.91
2019-02-23T06:19:43.304Z,102766.66
2019-02-23T06:20:44.422Z,102763.97
2019-02-23T06:21:53.598Z,102763.97
2019-02-23T06:22:48.589Z,102758.11
2019-02-23T06:23:49.711Z,102751.33
2019-02-23T06:24:50.823Z,102754.00
2019-02-23T06:25:51.944Z,102755.34
2019-02-23T06:26:53.072Z,102755.34
2019-02-23T06:27:54.189Z,102754.38
2019-02-23T06:28:55.400Z,102754.00
2019-02-23T06:29:56.517Z,102752.55
2019-02-23T06:30:57.634Z,102750.73
2019-02-23T06:31:58.869Z,102752.08
2019-02-23T06:32:59.987Z,102746.22
2019-02-23T06:34:01.100Z,102749.77
2019-02-23T06:35:02.321Z,102738.55
2019-02-23T06:36:03.544Z,102740.77
2019-02-23T06:37:04.673Z,102744.41
2019-02-23T06:38:05.798Z,102744.79
2019-02-23T06:39:06.916Z,102742.48
2019-02-23T06:40:09.331Z,102739.30
2019-02-23T06:41:10.511Z,102737.00
2019-02-23T06:42:11.642Z,102738.84
2019-02-23T06:43:12.762Z,102740.55
2019-02-23T06:44:13.873Z,102741.39
2019-02-23T06:45:15.006Z,102740.55
2019-02-23T06:46:16.137Z,102744.95
2019-02-23T06:47:17.296Z,102744.58
2019-02-23T06:48:19.925Z,102738.72
2019-02-23T06:49:21.283Z,102742.73
2019-02-23T06:50:22.495Z,102742.36
2019-02-23T06:51:23.724Z,102753.08
2019-02-23T06:52:24.980Z,102739.30
2019-02-23T06:53:26.098Z,102742.36
2019-02-23T06:54:27.219Z,102741.14
2019-02-23T06:55:28.336Z,102734.06
2019-02-23T06:56:29.462Z,102741.23
2019-02-23T06:57:30.780Z,102745.75
2019-02-23T06:58:31.922Z,102741.36
2019-02-23T06:59:33.146Z,102748.90
2019-02-23T07:00:34.263Z,102753.42
2019-02-23T07:01:35.555Z,102758.78
2019-02-23T07:02:36.676Z,102757.06
2019-02-23T07:03:37.793Z,102760.12
2019-02-23T07:04:38.914Z,102760.58
2019-02-23T07:05:40.013Z,102765.48
2019-02-23T07:06:41.131Z,102772.18
2019-02-23T07:07:42.284Z,102760.12
2019-02-23T07:08:43.504Z,102768.91
2019-02-23T07:09:44.617Z,102765.27
2019-02-23T07:10:45.731Z,102768.70
2019-02-23T07:11:46.844Z,102763.22
2019-02-23T07:12:48.001Z,102770.09
2019-02-23T07:13:49.197Z,102771.25
2019-02-23T07:14:50.312Z,102775.90
2019-02-23T07:15:51.434Z,102777.78
2019-02-23T07:16:52.651Z,102778.44
2019-02-23T07:17:53.777Z,102779.36
2019-02-23T07:18:54.892Z,102780.80
2019-02-23T07:19:56.009Z,102776.44
2019-02-23T07:20:57.122Z,102780.03
2019-02-23T07:21:58.253Z,102776.08
2019-02-23T07:22:59.378Z,102778.32
2019-02-23T07:24:00.493Z,102783.25
2019-02-23T07:25:02.003Z,102786.84
2019-02-23T07:26:03.115Z,102780.69
2019-02-23T07:27:04.227Z,102780.62
2019-02-23T07:28:05.355Z,102776.25
2019-02-23T07:29:06.477Z,102781.18
2019-02-23T07:30:12.735Z,102782.11
2019-02-23T07:31:13.859Z,102776.39
2019-02-23T07:32:15.244Z,102786.69
2019-02-23T07:33:23.696Z,102780.12
2019-02-23T07:34:19.420Z,102771.73
2019-02-23T07:35:20.640Z,102774.51
2019-02-23T07:36:21.762Z,102774.66
2019-02-23T07:37:22.881Z,102779.67
2019-02-23T07:38:24.009Z,102779.81
2019-02-23T07:39:25.126Z,102789.86
2019-02-23T07:40:26.244Z,102788.67
2019-02-23T07:41:27.463Z,102795.52
2019-02-23T07:42:28.580Z,102785.52
2019-02-23T07:43:29.719Z,102787.00
2019-02-23T07:44:30.833Z,102801.93
2019-02-23T07:45:31.951Z,102791.45
2019-02-23T07:46:33.062Z,102801.50
2019-02-23T07:47:34.183Z,102797.11
2019-02-23T07:48:35.448Z,102804.09
2019-02-23T07:49:36.684Z,102797.15
2019-02-23T07:50:37.799Z,102794.23
2019-02-23T07:51:39.017Z,102788.63
2019-02-23T07:52:40.150Z,102789.36
2019-02-23T07:53:41.292Z,102787.41
2019-02-23T07:54:42.514Z,102789.87
2019-02-23T07:55:43.639Z,102789.63
2019-02-23T07:56:44.760Z,102793.06
2019-02-23T07:57:45.873Z,102796.86
2019-02-23T07:58:47.032Z,102793.94
2019-02-23T07:59:48.149Z,102795.19
2019-02-23T08:00:49.261Z,102799.12
2019-02-23T08:01:50.381Z,102796.33
2019-02-23T08:02:51.501Z,102800.27
2019-02-23T08:03:53.205Z,102806.37
2019-02-23T08:04:54.340Z,102804.06
2019-02-23T08:05:55.453Z,102798.07
2019-02-23T08:06:56.577Z,102798.07
2019-02-23T08:07:57.689Z,102808.23
2019-02-23T08:08:58.937Z,102798.81
2019-02-23T08:10:00.103Z,102801.97
2019-02-23T08:11:01.485Z,102804.06
2019-02-23T08:12:02.589Z,102799.66
2019-02-23T08:13:03.813Z,102805.41
2019-02-23T08:14:04.968Z,102804.06
2019-02-23T08:15:10.118Z,102802.61
2019-02-23T08:16:11.241Z,102803.22
2019-02-23T08:17:12.367Z,102801.27
2019-02-23T08:18:13.483Z,102802.71
2019-02-23T08:19:14.609Z,102807.62
2019-02-23T08:20:15.724Z,102806.75
2019-02-23T08:21:16.841Z,102806.64
2019-02-23T08:22:17.954Z,102810.68
2019-02-23T08:23:19.072Z,102805.30
2019-02-23T08:24:20.208Z,102803.59
2019-02-23T08:25:21.437Z,102808.97
2019-02-23T08:26:22.553Z,102809.34
2019-02-23T08:27:23.665Z,102806.64
2019-02-23T08:28:24.785Z,102802.98
2019-02-23T08:29:26.226Z,102805.17
2019-02-23T08:30:27.340Z,102805.67
2019-02-23T08:31:28.465Z,102797.97
2019-02-23T08:32:29.584Z,102807.38
2019-02-23T08:33:30.821Z,102801.03
2019-02-23T08:34:32.327Z,102806.78
2019-02-23T08:35:33.440Z,102805.06
2019-02-23T08:36:34.557Z,102803.22
2019-02-23T08:37:35.671Z,102797.36
2019-02-23T08:38:36.888Z,102805.30
2019-02-23T08:39:38.052Z,102806.64
2019-02-23T08:40:39.169Z,102802.23
2019-02-23T08:41:40.391Z,102799.45
2019-02-23T08:42:41.623Z,102802.23
2019-02-23T08:43:42.746Z,102803.58
2019-02-23T08:44:43.904Z,102802.61
2019-02-23T08:45:45.128Z,102794.67
2019-02-23T08:46:46.244Z,102796.02
2019-02-23T08:47:47.375Z,102796.02
2019-02-23T08:48:48.602Z,102796.49
2019-02-23T08:49:49.772Z,102785.36
2019-02-23T08:50:50.890Z,102792.09
2019-02-23T08:51:52.010Z,102780.48
2019-02-23T08:52:53.133Z,102786.70
2019-02-23T08:53:54.244Z,102781.46
2019-02-23T08:54:55.488Z,102783.28
2019-02-23T08:55:56.600Z,102780.22
2019-02-23T08:56:57.724Z,102778.03
2019-02-23T08:57:58.843Z,102776.69
2019-02-23T08:58:59.961Z,102784.02
2019-02-23T09:00:01.104Z,102788.42
2019-02-23T09:01:02.282Z,102779.11
2019-02-23T09:02:03.424Z,102782.67
2019-02-23T09:03:04.608Z,102785.47
2019-02-23T09:04:05.751Z,102784.48
2019-02-23T09:05:08.473Z,102783.28
2019-02-23T09:06:09.588Z,102779.25
2019-02-23T09:07:10.700Z,102776.92
2019-02-23T09:08:11.820Z,102774.71
2019-02-23T09:09:12.943Z,102770.20
2019-02-23T09:10:14.568Z,102767.88
2019-02-23T09:11:15.678Z,102763.84
2019-02-23T09:12:16.789Z,102764.32
2019-02-23T09:13:17.904Z,102761.16
2019-02-23T09:14:19.028Z,102755.78
2019-02-23T09:15:22.125Z,102755.27
2019-02-23T09:16:23.280Z,102745.02
2019-02-23T09:17:24.394Z,102746.73
2019-02-23T09:18:25.618Z,102742.20
2019-02-23T09:19:26.849Z,102741.73
2019-02-23T09:20:29.456Z,102744.78
2019-02-23T09:21:30.912Z,102737.69
2019-02-23T09:22:32.032Z,102736.21
2019-02-23T09:23:33.145Z,102725.45
2019-02-23T09:24:34.260Z,102730.73
2019-02-23T09:25:35.492Z,102722.29
2019-02-23T09:26:36.606Z,102717.75
2019-02-23T09:27:37.724Z,102716.91
2019-02-23T09:28:38.841Z,102714.22
2019-02-23T09:29:40.066Z,102702.12
2019-02-23T09:30:41.188Z,102705.64
2019-02-23T09:31:42.308Z,102701.24
2019-02-23T09:32:43.433Z,102706.99
2019-02-23T09:33:44.552Z,102702.48
2019-02-23T09:34:45.768Z,102701.51
2019-02-23T09:35:46.924Z,102695.76
2019-02-23T09:36:48.630Z,102699.29
2019-02-23T09:37:49.737Z,102702.85
2019-02-23T09:38:50.852Z,102701.98
2019-02-23T09:39:52.077Z,102705.17
2019-02-23T09:40:53.314Z,102700.77
2019-02-23T09:41:54.429Z,102699.43
2019-02-23T09:42:55.546Z,102703.46
2019-02-23T09:43:56.768Z,102703.46
2019-02-23T09:44:57.892Z,102704.44
2019-02-23T09:45:59.046Z,102708.47
2019-02-23T09:47:00.169Z,102703.20
2019-02-23T09:48:01.390Z,102708.20
2019-02-23T09:49:02.547Z,102707.00
2019-02-23T09:50:03.958Z,102709.32
2019-02-23T09:51:05.089Z,102707.98
2019-02-23T09:52:06.212Z,102711.64
2019-02-23T09:53:11.164Z,102710.30
2019-02-23T09:54:10.368Z,102711.28
2019-02-23T09:55:11.480Z,102713.59
2019-02-23T09:56:12.641Z,102712.72
2019-02-23T09:57:13.759Z,102709.19
2019-02-23T09:58:14.873Z,102717.73
2019-02-23T09:59:15.993Z,102720.92
2019-02-23T10:00:17.126Z,102720.42
2019-02-23T10:01:18.283Z,102725.33
2019-02-23T10:02:19.395Z,102723.11
2019-02-23T10:03:20.509Z,102724.45
2019-02-23T10:04:21.624Z,102728.86
2019-02-23T10:05:22.742Z,102732.42
2019-02-23T10:06:23.875Z,102726.67
2019-02-23T10:07:25.095Z,102729.83
2019-02-23T10:08:26.209Z,102735.95
2019-02-23T10:09:27.327Z,102743.55
2019-02-23T10:10:28.441Z,102745.27
2019-02-23T10:11:29.572Z,102742.57
2019-02-23T10:12:30.784Z,102744.28
2019-02-23T10:13:31.907Z,102746.00
2019-02-23T10:14:33.028Z,102747.34
2019-02-23T10:15:34.146Z,102749.42
2019-02-23T10:16:35.281Z,102748.08
2019-02-23T10:17:36.514Z,102739.03
2019-02-23T10:18:37.634Z,102734.50
2019-02-23T10:19:38.746Z,102737.55
2019-02-23T10:20:39.864Z,102737.08
2019-02-23T10:21:41.224Z,102737.45
2019-02-23T10:22:42.340Z,102732.44
2019-02-23T10:23:43.467Z,102740.38
2019-02-23T10:24:44.577Z,102741.61
2019-02-23T10:25:45.697Z,102735.25
2019-02-23T10:26:46.943Z,102747.09
2019-02-23T10:27:48.053Z,102744.30
2019-02-23T10:28:49.174Z,102744.77
2019-02-23T10:29:50.292Z,102742.45
2019-02-23T10:30:51.411Z,102745.65
2019-02-23T10:31:52.544Z,102741.61
2019-02-23T10:32:53.668Z,102752.37
2019-02-23T10:33:54.788Z,102751.03
2019-02-23T10:34:56.008Z,102753.72
2019-02-23T10:35:57.131Z,102753.22
2019-02-23T10:36:58.360Z,102738.92
2019-02-23T10:37:59.482Z,102747.00
2019-02-23T10:39:01.194Z,102754.09
2019-02-23T10:40:03.297Z,102743.06
2019-02-23T10:41:04.415Z,102752.84
2019-02-23T10:42:05.645Z,102752.48
2019-02-23T10:43:06.765Z,102752.11
2019-02-23T10:44:08.001Z,102751.63
2019-02-23T10:45:10.214Z,102754.80
2019-02-23T10:46:12.241Z,102757.02
2019-02-23T10:47:13.581Z,102755.30
2019-02-23T10:48:14.692Z,102754.94
2019-02-23T10:49:15.820Z,102767.88
2019-02-23T10:50:17.060Z,102764.34
2019-02-23T10:51:18.171Z,102772.41
2019-02-23T10:52:19.415Z,102771.91
2019-02-23T10:53:20.545Z,102778.64
2019-02-23T10:54:21.666Z,102778.64
2019-02-23T10:55:22.781Z,102774.97
2019-02-23T10:56:24.096Z,102780.25
2019-02-23T10:57:25.232Z,102784.75
2019-02-23T10:58:26.351Z,102788.69
2019-02-23T10:59:27.572Z,102798.10
2019-02-23T11:00:28.885Z,102792.59
2019-02-23T11:01:30.002Z,102786.36
2019-02-23T11:02:31.137Z,102790.27
2019-02-23T11:03:32.242Z,102796.02
2019-02-23T11:04:33.411Z,102791.51
2019-02-23T11:05:34.541Z,102796.28
2019-02-23T11:06:35.662Z,102789.09
2019-02-23T11:07:36.910Z,102791.64
2019-02-23T11:08:38.130Z,102788.95
2019-02-23T11:09:39.600Z,102791.03
2019-02-23T11:10:40.704Z,102798.63
2019-02-23T11:11:41.919Z,102796.31
2019-02-23T11:12:43.094Z,102793.11
2019-02-23T11:13:44.308Z,102796.17
2019-02-23T11:14:45.437Z,102790.69
2019-02-23T11:15:46.535Z,102799.59
2019-02-23T11:16:47.744Z,102796.80
2019-02-23T11:17:48.876Z,102804.38
2019-02-23T11:18:49.988Z,102793.98
2019-02-23T11:19:51.302Z,102795.69
2019-02-23T11:20:52.411Z,102795.69
2019-02-23T11:21:53.673Z,102799.26
2019-02-23T11:22:54.853Z,102792.39
2019-02-23T11:23:55.974Z,102789.34
2019-02-23T11:24:57.091Z,102792.90
2019-02-23T11:25:58.202Z,102793.73
2019-02-23T11:26:59.412Z,102792.90
2019-02-23T11:28:00.743Z,102785.67
2019-02-23T11:29:01.952Z,102783.95
2019-02-23T11:30:06.364Z,102785.30
2019-02-23T11:31:07.579Z,102793.73
2019-02-23T11:32:08.683Z,102788.97
2019-02-23T11:33:09.810Z,102782.37
2019-02-23T11:34:10.925Z,102778.81
2019-02-23T11:35:13.936Z,102778.44
2019-02-23T11:36:15.058Z,102781.27
2019-02-23T11:37:16.169Z,102783.59
2019-02-23T11:38:17.323Z,102781.38
2019-02-23T11:39:18.541Z,102776.60